Time;durP1;ratioP1;P1;durP2;ratioP2;P2;SDS_P1;SDS_P2;PMS_P1;PMS_P2;Temp;Humidity;BMP_temperature;BMP_pressure;BME280_temperature;BME280_humidity;BME280_pressure;Samples;Min_cycle;Max_cycle;Signal;HPM_P1;HPM_P2
2021/05/25 00:00:29;;;;;;;2.00;1.00;;;17.90;96.00;;;;;;5034155;28;20025;-64
2021/05/25 00:02:56;;;;;;;2.50;1.20;;;17.80;95.90;;;;;;5034138;28;20037;-64
2021/05/25 00:05:31;;;;;;;2.45;1.17;;;17.80;95.90;;;;;;5034007;28;20029;-64
2021/05/25 00:07:57;;;;;;;2.47;1.02;;;17.80;95.90;;;;;;5034459;28;20381;-65
2021/05/25 00:10:24;;;;;;;2.60;1.10;;;17.80;95.90;;;;;;5034096;28;20029;-65
2021/05/25 00:12:50;;;;;;;2.38;1.13;;;17.80;95.90;;;;;;5034527;28;20017;-64
2021/05/25 00:15:19;;;;;;;1.85;1.10;;;17.80;95.90;;;;;;5034079;28;20385;-65
2021/05/25 00:17:46;;;;;;;2.58;1.10;;;17.70;95.90;;;;;;5033839;28;20056;-64
2021/05/25 00:20:13;;;;;;;2.45;0.90;;;17.70;95.90;;;;;;5033887;28;20025;-64
2021/05/25 00:22:39;;;;;;;1.67;0.98;;;17.70;95.90;;;;;;5033990;28;20397;-64
2021/05/25 00:25:07;;;;;;;1.27;0.70;;;17.70;95.80;;;;;;5032948;28;20026;-66
2021/05/25 00:27:33;;;;;;;2.13;0.73;;;17.70;95.80;;;;;;5033352;28;20025;-66
2021/05/25 00:29:59;;;;;;;1.80;0.95;;;17.70;95.80;;;;;;5033828;28;20120;-68
2021/05/25 00:32:24;;;;;;;2.75;0.80;;;17.70;95.80;;;;;;5033236;28;20508;-66
2021/05/25 00:34:50;;;;;;;1.75;0.90;;;17.60;95.80;;;;;;5034116;28;20025;-66
2021/05/25 00:37:16;;;;;;;1.60;0.90;;;17.70;95.80;;;;;;5033946;28;20033;-66
2021/05/25 00:39:42;;;;;;;1.63;0.68;;;17.60;95.80;;;;;;5033342;28;20079;-66
2021/05/25 00:42:08;;;;;;;2.28;0.90;;;17.60;95.80;;;;;;5033612;28;20041;-66
2021/05/25 00:44:33;;;;;;;2.03;1.02;;;17.60;95.80;;;;;;5033556;28;20032;-66
2021/05/25 00:46:59;;;;;;;2.33;1.10;;;17.60;95.80;;;;;;5033384;28;20032;-66
2021/05/25 00:49:25;;;;;;;2.03;0.80;;;17.60;95.80;;;;;;5033289;28;20017;-66
2021/05/25 00:51:50;;;;;;;2.00;0.85;;;17.50;95.70;;;;;;5033757;28;20562;-66
2021/05/25 00:54:17;;;;;;;1.35;0.70;;;17.50;95.80;;;;;;5033409;28;20431;-66
2021/05/25 00:56:42;;;;;;;1.65;0.70;;;17.50;95.70;;;;;;5033300;28;20095;-66
2021/05/25 00:59:08;;;;;;;1.20;0.63;;;17.50;95.70;;;;;;5033324;28;20025;-66
2021/05/25 01:01:34;;;;;;;1.20;0.70;;;17.50;95.70;;;;;;5032295;28;20106;-66
2021/05/25 01:04:00;;;;;;;1.48;0.70;;;17.60;95.80;;;;;;5033318;28;20044;-66
2021/05/25 01:06:26;;;;;;;1.40;0.63;;;17.50;95.80;;;;;;5032922;28;20485;-66
2021/05/25 01:08:51;;;;;;;1.95;0.82;;;17.50;95.70;;;;;;5033142;28;20532;-66
2021/05/25 01:11:19;;;;;;;1.73;0.68;;;17.50;95.80;;;;;;5033254;28;20021;-66
2021/05/25 01:13:47;;;;;;;1.63;0.93;;;17.50;96.10;;;;;;5032769;28;20026;-66
2021/05/25 01:16:15;;;;;;;2.10;0.65;;;17.50;95.70;;;;;;5032833;28;20033;-66
2021/05/25 01:18:40;;;;;;;2.58;0.80;;;17.50;95.70;;;;;;5032848;28;20030;-66
2021/05/25 01:21:08;;;;;;;1.45;0.70;;;17.40;95.70;;;;;;5032857;28;20359;-66
2021/05/25 01:23:35;;;;;;;2.10;1.00;;;17.40;95.70;;;;;;5032179;28;20115;-66
2021/05/25 01:26:02;;;;;;;1.85;0.70;;;17.40;95.70;;;;;;5032664;28;20465;-65
2021/05/25 01:28:28;;;;;;;1.00;0.65;;;17.40;95.70;;;;;;5032128;28;20477;-65
2021/05/25 01:30:55;;;;;;;2.90;0.88;;;17.40;95.70;;;;;;5032503;28;20488;-65
2021/05/25 01:33:23;;;;;;;1.75;0.90;;;17.40;95.70;;;;;;5032395;28;20084;-65
2021/05/25 01:35:49;;;;;;;1.65;0.70;;;17.40;95.70;;;;;;5032697;28;20021;-65
2021/05/25 01:38:16;;;;;;;1.85;0.85;;;17.40;95.70;;;;;;5031753;28;20032;-66
2021/05/25 01:40:43;;;;;;;1.42;0.50;;;17.30;95.70;;;;;;5032169;28;20531;-66
2021/05/25 01:43:09;;;;;;;2.17;0.88;;;17.30;95.70;;;;;;5032279;28;20045;-66
2021/05/25 01:45:37;;;;;;;1.05;0.68;;;17.40;95.70;;;;;;5032115;28;20021;-65
2021/05/25 01:48:05;;;;;;;0.88;0.50;;;17.30;95.70;;;;;;5032507;28;20029;-66
2021/05/25 01:50:33;;;;;;;1.13;0.63;;;17.30;95.70;;;;;;5031960;28;20044;-66
2021/05/25 01:53:01;;;;;;;1.42;0.60;;;17.30;95.70;;;;;;5031779;28;20492;-66
2021/05/25 01:55:32;;;;;;;1.05;0.70;;;17.30;95.70;;;;;;5031713;28;20407;-65
2021/05/25 01:58:09;;;;;;;1.05;0.52;;;17.30;95.70;;;;;;5032094;28;20036;-66
2021/05/25 02:00:37;;;;;;;2.00;0.73;;;17.30;95.70;;;;;;5031707;28;20080;-66
2021/05/25 02:03:04;;;;;;;1.27;0.50;;;17.30;95.70;;;;;;5032305;28;20051;-65
2021/05/25 02:05:31;;;;;;;1.63;0.70;;;17.30;95.70;;;;;;5031980;28;20097;-66
2021/05/25 02:07:57;;;;;;;2.22;0.70;;;17.20;95.60;;;;;;5032094;28;20026;-66
2021/05/25 02:10:36;;;;;;;1.45;0.63;;;17.20;95.60;;;;;;5031783;28;20029;-65
2021/05/25 02:13:08;;;;;;;1.63;0.50;;;17.20;95.60;;;;;;5032122;28;20029;-64
2021/05/25 02:15:34;;;;;;;1.42;0.63;;;17.20;95.60;;;;;;5031843;28;20021;-65
2021/05/25 02:18:16;;;;;;;1.02;0.50;;;17.20;95.60;;;;;;5031912;28;20045;-65
2021/05/25 02:20:43;;;;;;;1.20;0.60;;;17.20;95.60;;;;;;5031532;28;20071;-64
2021/05/25 02:23:09;;;;;;;1.23;0.40;;;17.20;95.60;;;;;;5031876;28;20033;-65
2021/05/25 02:25:34;;;;;;;0.80;0.50;;;17.20;95.60;;;;;;5031195;28;20147;-64
2021/05/25 02:28:02;;;;;;;2.35;0.70;;;17.20;95.60;;;;;;5031622;28;20489;-65
2021/05/25 02:30:28;;;;;;;1.70;0.57;;;17.20;95.60;;;;;;5031339;28;20541;-65
2021/05/25 02:32:55;;;;;;;0.88;0.50;;;17.20;95.60;;;;;;5031667;28;20053;-65
2021/05/25 02:35:21;;;;;;;1.13;0.50;;;17.10;95.50;;;;;;5031416;28;20034;-65
2021/05/25 02:37:47;;;;;;;1.58;0.70;;;17.20;95.60;;;;;;5032073;28;20026;-65
2021/05/25 02:40:13;;;;;;;1.58;0.70;;;17.20;95.60;;;;;;5031801;28;20116;-65
2021/05/25 02:42:39;;;;;;;2.42;0.47;;;17.20;95.60;;;;;;5031281;28;20397;-65
2021/05/25 02:45:06;;;;;;;1.58;0.60;;;17.10;95.50;;;;;;5031679;28;20028;-65
2021/05/25 02:47:32;;;;;;;1.60;0.60;;;17.10;95.50;;;;;;5030919;28;20485;-64
2021/05/25 02:50:06;;;;;;;1.90;0.70;;;17.10;95.50;;;;;;5031077;28;20037;-65
2021/05/25 02:52:38;;;;;;;;;;;17.10;95.50;;;;;;5031438;28;20036;-65
2021/05/25 02:55:06;;;;;;;1.30;0.70;;;17.10;95.50;;;;;;5031221;28;19909;-65
2021/05/25 02:57:32;;;;;;;1.60;0.68;;;17.10;95.50;;;;;;5029648;28;20395;-64
2021/05/25 02:59:57;;;;;;;1.25;0.50;;;17.00;95.50;;;;;;5031276;28;20025;-64
2021/05/25 03:02:23;;;;;;;2.05;0.60;;;17.00;95.50;;;;;;5030979;28;20116;-65
2021/05/25 03:04:49;;;;;;;2.08;0.70;;;17.10;95.50;;;;;;5031614;28;20434;-65
2021/05/25 03:07:14;;;;;;;1.40;0.43;;;17.00;95.40;;;;;;5031367;28;20029;-65
2021/05/25 03:09:40;;;;;;;1.55;0.70;;;17.00;95.50;;;;;;5029697;28;20026;-64
2021/05/25 03:12:06;;;;;;;2.35;0.70;;;17.00;95.50;;;;;;5031376;28;20026;-65
2021/05/25 03:14:32;;;;;;;1.80;0.63;;;17.00;95.50;;;;;;5030965;28;20037;-64
2021/05/25 03:16:57;;;;;;;1.98;0.70;;;17.00;95.50;;;;;;5031430;28;20025;-65
2021/05/25 03:19:23;;;;;;;1.77;0.82;;;17.00;95.40;;;;;;5031194;28;20025;-65
2021/05/25 03:21:49;;;;;;;1.55;0.65;;;17.00;95.40;;;;;;5031499;28;20033;-66
2021/05/25 03:24:16;;;;;;;1.20;0.57;;;17.00;95.40;;;;;;5030854;28;20029;-65
2021/05/25 03:26:42;;;;;;;1.27;0.50;;;17.00;95.40;;;;;;5030861;28;20038;-64
2021/05/25 03:29:07;;;;;;;1.50;0.50;;;17.00;95.40;;;;;;5031152;28;20105;-65
2021/05/25 03:31:35;;;;;;;0.88;0.57;;;17.00;95.40;;;;;;5031000;28;20026;-64
2021/05/25 03:34:01;;;;;;;1.10;0.50;;;17.00;95.50;;;;;;5031263;28;20448;-65
2021/05/25 03:36:26;;;;;;;1.50;0.60;;;16.90;95.50;;;;;;5030878;28;20489;-64
2021/05/25 03:38:52;;;;;;;1.52;0.85;;;17.00;95.50;;;;;;5031199;28;20021;-64
2021/05/25 03:41:18;;;;;;;1.73;0.82;;;16.90;95.40;;;;;;5031170;28;20037;-64
2021/05/25 03:43:43;;;;;;;1.77;0.70;;;16.90;95.40;;;;;;5030699;28;20024;-64
2021/05/25 03:46:09;;;;;;;1.92;0.60;;;16.90;95.40;;;;;;5031071;28;20072;-64
2021/05/25 03:48:34;;;;;;;1.25;0.50;;;16.90;95.40;;;;;;5030358;28;20022;-63
2021/05/25 03:51:00;;;;;;;2.53;0.63;;;16.90;95.40;;;;;;5030870;28;20083;-64
2021/05/25 03:53:27;;;;;;;1.73;0.50;;;16.90;95.40;;;;;;5030277;28;20025;-64
2021/05/25 03:55:55;;;;;;;0.95;0.50;;;16.90;95.40;;;;;;5030199;28;20135;-64
2021/05/25 04:01:06;;;;;;;2.40;0.70;;;16.90;95.40;;;;;;5032129;28;20083;-65
2021/05/25 04:03:34;;;;;;;1.05;0.55;;;16.90;95.40;;;;;;5034062;28;20389;-65
2021/05/25 04:05:59;;;;;;;2.38;0.73;;;16.90;95.40;;;;;;5034349;28;20029;-64
2021/05/25 04:08:25;;;;;;;1.40;0.70;;;16.90;95.40;;;;;;5033807;28;20025;-64
2021/05/25 04:10:51;;;;;;;1.08;0.50;;;16.80;95.30;;;;;;5034448;28;20118;-64
2021/05/25 04:13:17;;;;;;;1.63;0.70;;;16.90;95.40;;;;;;5034276;28;20030;-64
2021/05/25 04:15:46;;;;;;;1.63;0.60;;;16.90;95.40;;;;;;5032669;28;20116;-64
2021/05/25 04:18:12;;;;;;;2.33;0.63;;;16.80;95.30;;;;;;5034265;28;20029;-64
2021/05/25 04:20:37;;;;;;;1.13;0.57;;;16.80;95.40;;;;;;5033771;28;20026;-64
2021/05/25 04:23:03;;;;;;;1.63;0.50;;;16.80;95.30;;;;;;5033835;28;20026;-64
2021/05/25 04:25:29;;;;;;;1.25;0.70;;;16.80;95.30;;;;;;5033618;28;20025;-64
2021/05/25 04:27:54;;;;;;;1.38;0.70;;;16.80;95.30;;;;;;5033598;28;20031;-64
2021/05/25 04:30:21;;;;;;;1.30;0.60;;;16.80;95.30;;;;;;5032970;28;20048;-64
2021/05/25 04:32:47;;;;;;;1.65;0.63;;;16.80;95.30;;;;;;5034075;28;20029;-64
2021/05/25 04:35:13;;;;;;;1.45;0.68;;;16.80;95.30;;;;;;5033808;28;20076;-65
2021/05/25 04:37:39;;;;;;;1.38;0.55;;;16.80;95.30;;;;;;5033792;28;20029;-64
2021/05/25 04:40:05;;;;;;;2.03;0.65;;;16.80;95.20;;;;;;5033647;28;20496;-63
2021/05/25 04:42:30;;;;;;;2.22;0.65;;;16.80;95.20;;;;;;5033160;28;20037;-63
2021/05/25 04:44:56;;;;;;;2.28;0.80;;;16.80;95.20;;;;;;5033737;28;20049;-63
2021/05/25 04:47:22;;;;;;;1.30;0.50;;;16.80;95.20;;;;;;5033370;28;20496;-64
2021/05/25 04:49:47;;;;;;;2.17;0.60;;;16.80;95.20;;;;;;5033805;28;20155;-63
2021/05/25 04:52:14;;;;;;;1.67;0.63;;;16.80;95.20;;;;;;5033407;28;20095;-64
2021/05/25 04:54:40;;;;;;;1.77;0.70;;;16.80;95.20;;;;;;5032845;28;20029;-64
2021/05/25 04:57:05;;;;;;;2.20;0.77;;;16.80;95.20;;;;;;5033329;28;20021;-63
2021/05/25 04:59:31;;;;;;;1.42;0.60;;;16.80;95.20;;;;;;5033363;28;20029;-63
2021/05/25 05:01:57;;;;;;;1.23;0.60;;;16.80;95.50;;;;;;5032265;28;20436;-63
2021/05/25 05:04:22;;;;;;;2.70;0.80;;;16.80;95.20;;;;;;5032838;28;20041;-63
2021/05/25 05:06:48;;;;;;;2.15;0.70;;;16.80;95.50;;;;;;5033560;28;20108;-63
2021/05/25 05:09:14;;;;;;;1.50;0.60;;;16.80;95.10;;;;;;5033231;28;20026;-63
2021/05/25 05:11:41;;;;;;;1.92;0.70;;;16.90;95.00;;;;;;5032778;28;20060;-63
2021/05/25 05:14:07;;;;;;;2.35;0.70;;;16.90;95.00;;;;;;5033112;28;20017;-64
2021/05/25 05:16:32;;;;;;;1.70;0.52;;;16.90;94.90;;;;;;5032318;28;20116;-64
2021/05/25 05:18:58;;;;;;;2.50;0.80;;;17.00;94.90;;;;;;5033197;28;20514;-64
2021/05/25 05:21:24;;;;;;;1.40;0.60;;;16.90;94.80;;;;;;5032680;28;20389;-63
2021/05/25 05:23:49;;;;;;;1.83;0.70;;;16.90;94.70;;;;;;5033665;28;20033;-65
2021/05/25 05:26:15;;;;;;;1.48;0.50;;;16.90;94.70;;;;;;5032730;28;20030;-65
2021/05/25 05:28:41;;;;;;;1.20;0.73;;;16.90;94.80;;;;;;5032697;28;20514;-65
2021/05/25 05:31:06;;;;;;;2.60;0.60;;;16.90;94.80;;;;;;5032795;28;20036;-65
2021/05/25 05:33:32;;;;;;;1.45;0.40;;;17.00;94.80;;;;;;5032129;28;20032;-65
2021/05/25 05:35:57;;;;;;;2.10;0.73;;;17.00;94.90;;;;;;5032728;28;20121;-67
2021/05/25 05:38:24;;;;;;;2.42;0.70;;;17.00;94.90;;;;;;5032354;28;20026;-65
2021/05/25 05:40:50;;;;;;;3.08;0.80;;;17.00;94.90;;;;;;5031357;28;20128;-66
2021/05/25 05:43:18;;;;;;;1.83;0.63;;;17.00;94.90;;;;;;5032963;28;20431;-65
2021/05/25 05:45:44;;;;;;;2.55;0.70;;;17.00;94.80;;;;;;5032246;28;20032;-71
2021/05/25 05:48:10;;;;;;;2.45;0.70;;;17.00;94.80;;;;;;5032421;28;20027;-72
2021/05/25 05:50:36;;;;;;;1.75;0.60;;;17.00;94.80;;;;;;5032014;28;20113;-69
2021/05/25 05:53:02;;;;;;;2.83;0.90;;;17.10;95.00;;;;;;5031810;28;20358;-71
2021/05/25 05:55:28;;;;;;;1.63;0.63;;;17.10;95.10;;;;;;5032007;28;20033;-71
2021/05/25 05:57:53;;;;;;;1.73;0.60;;;17.20;95.20;;;;;;5032450;28;20025;-72
2021/05/25 06:00:21;;;;;;;2.70;0.60;;;17.30;95.10;;;;;;5032314;28;20370;-72
2021/05/25 06:02:47;;;;;;;5.95;1.20;;;17.40;95.30;;;;;;5031129;28;20029;-70
2021/05/25 06:05:12;;;;;;;7.18;0.93;;;17.40;95.50;;;;;;5031653;28;20025;-67
2021/05/25 06:07:38;;;;;;;4.65;1.27;;;17.40;95.20;;;;;;5031789;28;20029;-67
2021/05/25 06:10:05;;;;;;;2.45;0.90;;;17.50;95.10;;;;;;5032173;28;20098;-68
2021/05/25 06:12:31;;;;;;;2.80;0.70;;;17.50;95.00;;;;;;5031329;28;20025;-68
2021/05/25 06:14:57;;;;;;;3.45;0.95;;;17.60;95.00;;;;;;5032059;28;20496;-69
2021/05/25 06:17:23;;;;;;;2.63;0.95;;;17.70;94.80;;;;;;5031753;28;20381;-69
2021/05/25 06:19:49;;;;;;;3.45;0.73;;;17.70;94.70;;;;;;5032091;28;20029;-69
2021/05/25 06:22:14;;;;;;;3.00;0.82;;;18.00;94.40;;;;;;5031739;28;20037;-69
2021/05/25 06:24:40;;;;;;;3.78;0.80;;;18.20;94.10;;;;;;5030630;28;20070;-69
2021/05/25 06:27:06;;;;;;;2.17;0.60;;;18.20;93.80;;;;;;5030614;28;20116;-68
2021/05/25 06:29:32;;;;;;;3.22;0.88;;;18.30;93.60;;;;;;5031107;28;20030;-66
2021/05/25 06:32:01;;;;;;;3.85;1.25;;;18.50;93.60;;;;;;5029437;28;20507;-68
2021/05/25 06:34:29;;;;;;;2.10;1.02;;;18.50;93.40;;;;;;5030094;28;20147;-68
2021/05/25 06:36:56;;;;;;;3.28;1.15;;;18.60;93.40;;;;;;5030286;28;20064;-66
2021/05/25 06:39:22;;;;;;;3.60;1.33;;;18.60;93.40;;;;;;5029868;28;20446;-64
2021/05/25 06:41:47;;;;;;;4.57;1.33;;;18.60;93.30;;;;;;5029445;28;20069;-66
2021/05/25 06:44:13;;;;;;;4.85;1.00;;;18.70;93.30;;;;;;5030377;28;20377;-70
2021/05/25 06:46:40;;;;;;;2.33;0.75;;;18.70;93.20;;;;;;5030875;28;20087;-65
2021/05/25 06:49:05;;;;;;;3.25;1.10;;;18.70;93.00;;;;;;5032296;28;20021;-68
2021/05/25 06:51:31;;;;;;;2.70;1.17;;;18.80;93.10;;;;;;5030798;28;20034;-67
2021/05/25 06:53:57;;;;;;;2.35;1.00;;;18.80;93.10;;;;;;5030638;28;20440;-65
2021/05/25 06:56:23;;;;;;;1.92;0.70;;;19.00;93.00;;;;;;5030860;28;20021;-63
2021/05/25 06:58:48;;;;;;;2.45;0.95;;;19.10;92.80;;;;;;5031351;28;20380;-66
2021/05/25 07:01:14;;;;;;;2.30;0.98;;;19.20;92.70;;;;;;5030814;28;20544;-63
2021/05/25 07:03:39;;;;;;;2.67;0.80;;;19.20;92.70;;;;;;5031120;28;20025;-66
2021/05/25 07:06:05;;;;;;;3.40;1.00;;;19.30;92.70;;;;;;5031133;28;20018;-62
2021/05/25 07:08:31;;;;;;;3.33;1.08;;;19.50;92.50;;;;;;5031152;28;20033;-64
2021/05/25 07:10:56;;;;;;;2.15;0.82;;;19.60;92.40;;;;;;5031362;28;20034;-64
2021/05/25 07:13:22;;;;;;;2.20;0.70;;;19.80;92.20;;;;;;5031054;28;20080;-62
2021/05/25 07:15:48;;;;;;;4.07;0.80;;;19.90;92.10;;;;;;5028939;28;20033;-62
2021/05/25 07:18:18;;;;;;;2.33;0.77;;;19.90;92.00;;;;;;5030122;28;20026;-63
2021/05/25 07:20:44;;;;;;;3.88;0.80;;;19.80;92.10;;;;;;5030150;28;20034;-62
2021/05/25 07:23:10;;;;;;;3.10;0.90;;;19.80;92.10;;;;;;5031026;28;20042;-63
2021/05/25 07:25:37;;;;;;;3.35;0.90;;;19.80;92.50;;;;;;5030993;28;20040;-64
2021/05/25 07:28:03;;;;;;;3.70;1.00;;;19.80;92.00;;;;;;5031122;28;20103;-64
2021/05/25 07:30:29;;;;;;;2.72;1.02;;;19.70;92.20;;;;;;5030783;28;20466;-63
2021/05/25 07:32:55;;;;;;;3.70;1.20;;;19.80;92.10;;;;;;5031115;28;20117;-63
2021/05/25 07:35:21;;;;;;;2.85;0.90;;;19.60;92.20;;;;;;5030889;28;20385;-62
2021/05/25 07:37:46;;;;;;;2.50;0.82;;;19.60;92.30;;;;;;5034394;28;20409;-66
2021/05/25 07:40:17;;;;;;;2.15;0.80;;;19.70;92.30;;;;;;5034803;28;20469;-68
2021/05/25 07:42:44;;;;;;;2.50;0.75;;;19.80;92.20;;;;;;5034546;28;20462;-68
2021/05/25 07:45:10;;;;;;;3.55;1.02;;;19.90;92.10;;;;;;5034498;28;20029;-65
2021/05/25 07:47:36;;;;;;;2.13;0.80;;;19.90;92.20;;;;;;5034429;28;20029;-64
2021/05/25 07:50:13;;;;;;;3.38;0.80;;;20.00;92.10;;;;;;5034418;28;20045;-65
2021/05/25 07:52:43;;;;;;;2.70;0.70;;;19.90;92.20;;;;;;5033809;28;20060;-66
2021/05/25 07:55:11;;;;;;;2.28;0.80;;;19.80;92.40;;;;;;5034677;28;20028;-66
2021/05/25 07:57:37;;;;;;;2.03;0.60;;;19.90;92.40;;;;;;5034164;28;20056;-66
2021/05/25 08:00:06;;;;;;;3.78;1.13;;;20.10;92.20;;;;;;5034355;28;20109;-67
2021/05/25 08:02:31;;;;;;;3.15;0.70;;;20.10;92.20;;;;;;5034349;28;20044;-69
2021/05/25 08:04:57;;;;;;;2.88;0.85;;;20.10;92.40;;;;;;5034470;28;20365;-67
2021/05/25 08:07:22;;;;;;;3.25;0.82;;;20.00;92.40;;;;;;5033992;28;20036;-68
2021/05/25 08:09:48;;;;;;;2.13;0.82;;;20.10;92.40;;;;;;5034623;28;20215;-68
2021/05/25 08:12:14;;;;;;;3.05;0.68;;;20.10;92.50;;;;;;5034294;28;20072;-66
2021/05/25 08:14:40;;;;;;;3.10;0.80;;;20.10;92.40;;;;;;5033427;28;20029;-67
2021/05/25 08:17:17;;;;;;;3.05;0.80;;;20.10;92.30;;;;;;5033766;28;20053;-67
2021/05/25 08:19:44;;;;;;;2.28;0.68;;;20.00;92.50;;;;;;5033801;28;20115;-67
2021/05/25 08:22:10;;;;;;;2.92;0.82;;;20.10;93.00;;;;;;5033158;28;20072;-62
2021/05/25 08:24:35;;;;;;;2.17;0.70;;;20.50;92.50;;;;;;5033427;28;20099;-67
2021/05/25 08:27:01;;;;;;;1.25;0.50;;;20.50;92.00;;;;;;5033677;28;20021;-66
2021/05/25 08:29:27;;;;;;;2.42;0.63;;;20.80;92.30;;;;;;5032417;28;20101;-66
2021/05/25 08:31:52;;;;;;;2.70;0.60;;;20.80;91.70;;;;;;5032442;28;20100;-66
2021/05/25 08:34:18;;;;;;;2.08;0.43;;;20.70;91.80;;;;;;5033116;28;20053;-68
2021/05/25 08:36:44;;;;;;;1.65;0.47;;;21.00;92.50;;;;;;5033227;28;20029;-67
2021/05/25 08:39:09;;;;;;;1.80;0.40;;;21.00;91.70;;;;;;5033764;28;20029;-67
2021/05/25 08:41:36;;;;;;;1.42;0.40;;;20.80;92.20;;;;;;5032951;28;20493;-67
2021/05/25 08:44:02;;;;;;;0.95;0.40;;;20.80;92.60;;;;;;5033848;28;20037;-65
2021/05/25 08:46:28;;;;;;;1.60;0.30;;;21.10;91.80;;;;;;5032920;28;20032;-66
2021/05/25 08:48:56;;;;;;;0.95;0.30;;;20.80;91.70;;;;;;5033500;28;20033;-67
2021/05/25 08:51:22;;;;;;;0.60;0.20;;;20.80;92.10;;;;;;5032807;28;20034;-67
2021/05/25 08:53:48;;;;;;;1.50;0.47;;;20.90;92.20;;;;;;5033838;28;20030;-67
2021/05/25 08:56:14;;;;;;;1.25;0.40;;;21.20;92.70;;;;;;5033340;28;20365;-68
2021/05/25 08:58:39;;;;;;;1.20;0.45;;;21.30;91.80;;;;;;5033352;28;20033;-67
2021/05/25 09:01:05;;;;;;;1.55;0.47;;;21.10;91.70;;;;;;5032930;28;20098;-66
2021/05/25 09:03:31;;;;;;;1.13;0.30;;;21.20;91.90;;;;;;5032686;28;20075;-66
2021/05/25 09:06:06;;;;;;;1.10;0.43;;;21.20;92.00;;;;;;5033140;28;20120;-66
2021/05/25 09:08:32;;;;;;;1.35;0.30;;;21.20;92.00;;;;;;5032252;28;20040;-64
2021/05/25 09:11:08;;;;;;;1.30;0.30;;;21.20;92.30;;;;;;5032932;28;20021;-65
2021/05/25 09:13:34;;;;;;;1.33;0.30;;;21.20;92.20;;;;;;5031976;28;20421;-64
2021/05/25 09:16:02;;;;;;;0.63;0.20;;;21.10;92.30;;;;;;5033085;28;20040;-67
2021/05/25 09:18:30;;;;;;;3.50;0.30;;;21.10;92.50;;;;;;5032478;28;20385;-68
2021/05/25 09:21:00;;;;;;;0.90;0.40;;;21.10;92.40;;;;;;5032898;28;20036;-66
2021/05/25 09:23:34;;;;;;;1.42;0.25;;;21.10;92.20;;;;;;5032261;28;20559;-63
2021/05/25 09:26:12;;;;;;;0.98;0.20;;;21.50;92.40;;;;;;5032344;28;20103;-63
2021/05/25 09:28:57;;;;;;;2.10;0.40;;;21.40;91.80;;;;;;5032075;28;20500;-64
2021/05/25 09:31:41;;;;;;;0.60;0.20;;;21.30;92.10;;;;;;5032503;28;20030;-62
2021/05/25 09:34:11;;;;;;;2.25;0.28;;;21.30;92.20;;;;;;5032699;28;20049;-63
2021/05/25 09:37:05;;;;;;;2.05;0.30;;;21.30;92.20;;;;;;5032023;28;20496;-66
2021/05/25 09:39:54;;;;;;;0.90;0.32;;;21.30;92.30;;;;;;5031893;28;20044;-65
2021/05/25 09:42:20;;;;;;;1.02;0.30;;;21.20;92.30;;;;;;5013247;28;20108;-63
2021/05/25 09:45:11;;;;;;;1.50;0.40;;;21.30;92.30;;;;;;5012535;28;20482;-63
2021/05/25 09:47:53;;;;;;;1.50;0.47;;;21.20;92.30;;;;;;5031406;28;20025;-62
2021/05/25 09:50:24;;;;;;;2.92;0.40;;;21.20;92.10;;;;;;5032581;28;20037;-63
2021/05/25 09:53:17;;;;;;;1.83;0.47;;;21.70;92.30;;;;;;5032632;28;20033;-67
2021/05/25 09:56:06;;;;;;;2.75;0.55;;;21.60;91.70;;;;;;5032045;28;20025;-61
2021/05/25 09:58:32;;;;;;;1.30;0.35;;;21.40;91.90;;;;;;5031107;28;20025;-64
2021/05/25 10:00:58;;;;;;;2.47;0.47;;;21.40;92.20;;;;;;5031599;28;20477;-62
2021/05/25 10:03:26;;;;;;;2.50;0.50;;;21.30;92.20;;;;;;5031722;28;20484;-69
2021/05/25 10:05:53;;;;;;;1.85;0.52;;;21.30;92.50;;;;;;5031976;28;20037;-66
2021/05/25 10:08:23;;;;;;;1.50;0.60;;;21.20;92.50;;;;;;5031956;28;20052;-68
2021/05/25 10:10:53;;;;;;;1.35;0.35;;;21.20;92.50;;;;;;5032397;28;20040;-68
2021/05/25 10:13:20;;;;;;;1.35;0.60;;;21.20;92.50;;;;;;5032470;28;20029;-67
2021/05/25 10:15:48;;;;;;;1.38;0.35;;;21.30;92.50;;;;;;5032059;28;20060;-68
2021/05/25 10:20:43;;;;;;;1.20;0.40;;;21.40;92.60;;;;;;5031435;28;20029;-69
2021/05/25 10:23:10;;;;;;;2.22;0.40;;;21.40;92.30;;;;;;5030617;28;20055;-68
2021/05/25 10:25:39;;;;;;;0.88;0.30;;;21.50;92.60;;;;;;5030372;28;20071;-68
2021/05/25 10:28:06;;;;;;;1.30;0.40;;;21.40;92.60;;;;;;5031551;28;20029;-68
2021/05/25 10:30:34;;;;;;;1.23;0.50;;;21.40;92.60;;;;;;5031720;28;20108;-67
2021/05/25 10:33:06;;;;;;;1.35;0.50;;;21.50;92.70;;;;;;5031456;28;20032;-67
2021/05/25 10:35:49;;;;;;;1.80;0.40;;;21.50;92.50;;;;;;5030920;28;20040;-67
2021/05/25 10:38:16;;;;;;;4.05;0.90;;;21.50;92.50;;;;;;5031362;28;20071;-68
2021/05/25 10:40:46;;;;;;;2.45;0.73;;;21.20;91.80;;;;;;5030717;28;20056;-66
2021/05/25 10:43:42;;;;;;;2.88;0.82;;;20.80;91.70;;;;;;5031916;28;20068;-65
2021/05/25 10:46:14;;;;;;;1.77;0.70;;;20.60;91.80;;;;;;5031131;28;20036;-68
2021/05/25 10:49:17;;;;;;;1.55;0.75;;;20.50;91.80;;;;;;5031291;28;20037;-67
2021/05/25 10:54:25;;;;;;;1.80;0.70;;;20.50;91.70;;;;;;5027919;28;20036;-65
2021/05/25 10:56:52;;;;;;;3.50;0.70;;;20.50;91.70;;;;;;5030236;28;20028;-71
2021/05/25 10:59:19;;;;;;;2.42;0.75;;;20.50;91.70;;;;;;5028767;28;20048;-71
2021/05/25 11:01:55;;;;;;;2.92;0.77;;;20.50;91.70;;;;;;5030439;28;20486;-71
2021/05/25 11:04:33;;;;;;;3.13;0.80;;;20.60;91.90;;;;;;5029303;28;20489;-65
2021/05/25 11:06:59;;;;;;;3.38;0.90;;;20.40;92.20;;;;;;5031414;28;20172;-71
2021/05/25 11:09:29;;;;;;;2.47;0.85;;;20.30;92.30;;;;;;5031396;28;20104;-74
2021/05/25 11:12:15;;;;;;;3.00;0.90;;;20.30;92.40;;;;;;5035292;28;20037;-73
2021/05/25 11:15:12;;;;;;;4.30;1.00;;;20.20;92.50;;;;;;5016012;28;20423;-69
2021/05/25 11:17:39;;;;;;;2.47;1.00;;;20.40;92.50;;;;;;5035093;28;20503;-78
2021/05/25 11:20:30;;;;;;;2.92;0.85;;;20.50;92.30;;;;;;5035342;28;20508;-77
2021/05/25 11:22:56;;;;;;;3.00;0.80;;;20.50;92.30;;;;;;5035548;28;20095;-77
2021/05/25 11:25:41;;;;;;;3.05;0.90;;;20.60;92.30;;;;;;5035182;28;20473;-73
2021/05/25 11:28:07;;;;;;;1.90;0.77;;;20.70;92.30;;;;;;5034877;28;20041;-74
2021/05/25 11:30:35;;;;;;;1.65;0.60;;;20.80;92.50;;;;;;5033302;28;20033;-70
2021/05/25 11:33:01;;;;;;;2.60;0.77;;;20.70;92.30;;;;;;5015899;28;20025;-74
2021/05/25 11:35:33;;;;;;;2.50;0.60;;;20.70;92.30;;;;;;5015293;28;20077;-78
2021/05/25 11:38:02;;;;;;;2.38;0.70;;;20.50;92.40;;;;;;5015411;28;20025;-77
2021/05/25 11:40:35;;;;;;;2.17;0.60;;;20.50;92.40;;;;;;5014953;28;20026;-72
2021/05/25 11:43:02;;;;;;;2.60;0.77;;;20.50;92.50;;;;;;5015428;28;20030;-77
2021/05/25 11:45:30;;;;;;;2.88;0.90;;;20.50;92.50;;;;;;5017028;28;20063;-73
2021/05/25 11:48:01;;;;;;;2.00;0.75;;;20.40;92.70;;;;;;5034817;28;20018;-73
2021/05/25 11:50:28;;;;;;;2.97;0.90;;;20.40;92.80;;;;;;5034403;28;20037;-76
2021/05/25 11:52:55;;;;;;;1.73;0.52;;;20.30;92.90;;;;;;5034851;28;20030;-75
2021/05/25 11:55:23;;;;;;;3.45;0.93;;;20.30;93.00;;;;;;5035195;28;20075;-73
2021/05/25 11:57:53;;;;;;;3.28;0.95;;;20.20;93.00;;;;;;5034853;28;20032;-75
2021/05/25 12:00:23;;;;;;;3.78;0.90;;;20.20;93.10;;;;;;5035437;28;20175;-73
2021/05/25 12:02:52;;;;;;;3.17;0.70;;;20.20;93.40;;;;;;5033795;28;20512;-71
2021/05/25 12:05:23;;;;;;;2.55;0.60;;;20.20;93.90;;;;;;5034755;28;20466;-69
2021/05/25 12:07:50;;;;;;;2.95;0.82;;;20.30;93.10;;;;;;5042092;28;20041;-68
2021/05/25 12:10:18;;;;;;;2.08;0.70;;;20.50;92.90;;;;;;5033584;28;20060;-67
2021/05/25 12:12:46;;;;;;;1.92;0.70;;;20.60;92.80;;;;;;5034045;28;20017;-69
2021/05/25 12:15:19;;;;;;;1.85;0.45;;;20.70;92.70;;;;;;5033764;28;20048;-72
2021/05/25 12:17:53;;;;;;;2.15;0.82;;;20.70;92.70;;;;;;5034050;28;20022;-72
2021/05/25 12:20:21;;;;;;;2.65;0.80;;;20.80;92.90;;;;;;5034513;28;20140;-71
2021/05/25 12:22:52;;;;;;;1.73;0.68;;;20.80;92.90;;;;;;5033360;28;20089;-71
2021/05/25 12:25:31;;;;;;;1.92;0.70;;;20.80;92.70;;;;;;5034101;28;20091;-67
2021/05/25 12:28:14;;;;;;;3.58;0.80;;;20.80;92.70;;;;;;5034040;28;20063;-72
2021/05/25 12:31:01;;;;;;;2.05;0.70;;;20.90;92.80;;;;;;5033833;28;20102;-71
2021/05/25 12:33:32;;;;;;;2.58;0.68;;;20.90;92.70;;;;;;5033620;28;20070;-74
2021/05/25 12:36:34;;;;;;;2.17;0.80;;;20.90;92.70;;;;;;5034074;28;20029;-72
2021/05/25 12:39:39;;;;;;;1.52;0.77;;;21.00;92.80;;;;;;5014217;28;20048;-71
2021/05/25 12:42:16;;;;;;;3.72;1.00;;;21.00;92.90;;;;;;5013941;28;20034;-72
2021/05/25 12:44:42;;;;;;;3.45;1.05;;;21.00;92.90;;;;;;5016023;28;20079;-70
2021/05/25 12:47:10;;;;;;;2.38;0.95;;;21.00;92.90;;;;;;5033039;28;20424;-67
2021/05/25 12:49:37;;;;;;;2.38;0.70;;;21.00;92.90;;;;;;5032866;28;20377;-68
2021/05/25 12:52:34;;;;;;;2.90;0.75;;;21.00;93.00;;;;;;5032930;28;20028;-69
2021/05/25 12:55:08;;;;;;;2.53;0.60;;;21.00;93.00;;;;;;5033468;28;20065;-71
2021/05/25 12:57:50;;;;;;;3.20;0.93;;;21.00;93.00;;;;;;5033016;28;20029;-73
2021/05/25 13:00:42;;;;;;;1.50;0.57;;;21.00;93.00;;;;;;5032522;28;20096;-73
2021/05/25 13:03:27;;;;;;;2.80;0.88;;;21.00;93.50;;;;;;5032524;28;20044;-71